sensor_id;sensor_type;location;lat;lon;timestamp;P1;durP1;ratioP1;P2;durP2;ratioP2
55260;SDS011;41123;51.416;6.758;2022-07-10T00:00:13;4.00;;;0.90;;
55260;SDS011;41123;51.416;6.758;2022-07-10T00:02:40;4.47;;;0.90;;
55260;SDS011;41123;51.416;6.758;2022-07-10T00:05:07;5.30;;;1.30;;
55260;SDS011;41123;51.416;6.758;2022-07-10T00:07:33;4.72;;;1.10;;
55260;SDS011;41123;51.416;6.758;2022-07-10T00:09:59;2.75;;;0.98;;
55260;SDS011;41123;51.416;6.758;2022-07-10T00:12:24;6.33;;;1.17;;
55260;SDS011;41123;51.416;6.758;2022-07-10T00:14:50;4.82;;;1.10;;
55260;SDS011;41123;51.416;6.758;2022-07-10T00:17:16;4.53;;;0.90;;
55260;SDS011;41123;51.416;6.758;2022-07-10T00:19:42;5.53;;;0.90;;
55260;SDS011;41123;51.416;6.758;2022-07-10T00:22:08;3.97;;;0.90;;
55260;SDS011;41123;51.416;6.758;2022-07-10T00:24:34;4.20;;;1.08;;
55260;SDS011;41123;51.416;6.758;2022-07-10T00:26:59;3.77;;;0.90;;
55260;SDS011;41123;51.416;6.758;2022-07-10T00:29:25;5.57;;;1.07;;
55260;SDS011;41123;51.416;6.758;2022-07-10T00:31:50;4.13;;;0.98;;
55260;SDS011;41123;51.416;6.758;2022-07-10T00:34:16;4.13;;;1.00;;
55260;SDS011;41123;51.416;6.758;2022-07-10T00:36:42;3.83;;;1.10;;
55260;SDS011;41123;51.416;6.758;2022-07-10T00:39:08;6.25;;;1.20;;
55260;SDS011;41123;51.416;6.758;2022-07-10T00:41:34;8.52;;;1.10;;
55260;SDS011;41123;51.416;6.758;2022-07-10T00:44:01;5.93;;;1.20;;
55260;SDS011;41123;51.416;6.758;2022-07-10T00:46:28;5.38;;;1.10;;
55260;SDS011;41123;51.416;6.758;2022-07-10T00:48:54;5.20;;;0.98;;
55260;SDS011;41123;51.416;6.758;2022-07-10T00:51:24;5.32;;;1.10;;
55260;SDS011;41123;51.416;6.758;2022-07-10T00:53:51;4.53;;;1.10;;
55260;SDS011;41123;51.416;6.758;2022-07-10T00:56:18;5.60;;;1.30;;
55260;SDS011;41123;51.416;6.758;2022-07-10T00:58:47;5.05;;;1.15;;
55260;SDS011;41123;51.416;6.758;2022-07-10T01:01:14;6.90;;;1.45;;
55260;SDS011;41123;51.416;6.758;2022-07-10T01:03:40;8.30;;;1.17;;
55260;SDS011;41123;51.416;6.758;2022-07-10T01:06:06;3.88;;;1.10;;
55260;SDS011;41123;51.416;6.758;2022-07-10T01:08:31;6.17;;;1.00;;
55260;SDS011;41123;51.416;6.758;2022-07-10T01:10:57;6.97;;;1.20;;
55260;SDS011;41123;51.416;6.758;2022-07-10T01:13:23;6.90;;;1.40;;
55260;SDS011;41123;51.416;6.758;2022-07-10T01:15:49;4.78;;;1.05;;
55260;SDS011;41123;51.416;6.758;2022-07-10T01:18:15;5.93;;;1.00;;
55260;SDS011;41123;51.416;6.758;2022-07-10T01:20:41;5.03;;;1.00;;
55260;SDS011;41123;51.416;6.758;2022-07-10T01:23:07;3.40;;;0.97;;
55260;SDS011;41123;51.416;6.758;2022-07-10T01:25:32;4.88;;;1.00;;
55260;SDS011;41123;51.416;6.758;2022-07-10T01:27:58;5.30;;;0.97;;
55260;SDS011;41123;51.416;6.758;2022-07-10T01:30:24;5.45;;;1.10;;
55260;SDS011;41123;51.416;6.758;2022-07-10T01:36:12;4.35;;;0.93;;
55260;SDS011;41123;51.416;6.758;2022-07-10T01:38:39;5.10;;;1.10;;
55260;SDS011;41123;51.416;6.758;2022-07-10T01:41:05;5.22;;;1.00;;
55260;SDS011;41123;51.416;6.758;2022-07-10T01:43:31;5.25;;;1.08;;
55260;SDS011;41123;51.416;6.758;2022-07-10T01:45:57;5.50;;;1.10;;
55260;SDS011;41123;51.416;6.758;2022-07-10T01:48:22;5.18;;;0.90;;
55260;SDS011;41123;51.416;6.758;2022-07-10T01:50:48;4.43;;;1.10;;
55260;SDS011;41123;51.416;6.758;2022-07-10T01:53:13;4.57;;;1.00;;
55260;SDS011;41123;51.416;6.758;2022-07-10T01:55:39;5.17;;;1.23;;
55260;SDS011;41123;51.416;6.758;2022-07-10T01:58:30;4.35;;;1.02;;
55260;SDS011;41123;51.416;6.758;2022-07-10T02:01:21;8.52;;;1.30;;
55260;SDS011;41123;51.416;6.758;2022-07-10T02:04:11;5.72;;;1.17;;
55260;SDS011;41123;51.416;6.758;2022-07-10T02:07:02;6.15;;;1.08;;
55260;SDS011;41123;51.416;6.758;2022-07-10T02:09:53;5.63;;;1.30;;
55260;SDS011;41123;51.416;6.758;2022-07-10T02:12:44;4.65;;;1.20;;
55260;SDS011;41123;51.416;6.758;2022-07-10T02:15:35;4.63;;;1.10;;
55260;SDS011;41123;51.416;6.758;2022-07-10T02:18:26;5.38;;;1.05;;
55260;SDS011;41123;51.416;6.758;2022-07-10T02:21:17;6.00;;;0.80;;
55260;SDS011;41123;51.416;6.758;2022-07-10T02:24:08;5.18;;;1.00;;
55260;SDS011;41123;51.416;6.758;2022-07-10T02:26:59;3.43;;;1.00;;
55260;SDS011;41123;51.416;6.758;2022-07-10T02:29:50;3.83;;;0.95;;
55260;SDS011;41123;51.416;6.758;2022-07-10T02:32:41;9.90;;;1.23;;
55260;SDS011;41123;51.416;6.758;2022-07-10T02:35:32;5.55;;;0.88;;
55260;SDS011;41123;51.416;6.758;2022-07-10T02:38:23;3.65;;;1.00;;
55260;SDS011;41123;51.416;6.758;2022-07-10T02:41:14;4.63;;;1.10;;
55260;SDS011;41123;51.416;6.758;2022-07-10T02:44:05;4.10;;;1.10;;
55260;SDS011;41123;51.416;6.758;2022-07-10T02:46:56;5.97;;;0.93;;
55260;SDS011;41123;51.416;6.758;2022-07-10T02:49:47;6.53;;;1.20;;
55260;SDS011;41123;51.416;6.758;2022-07-10T02:52:38;3.23;;;0.90;;
55260;SDS011;41123;51.416;6.758;2022-07-10T02:55:29;4.53;;;1.20;;
55260;SDS011;41123;51.416;6.758;2022-07-10T02:58:20;8.25;;;1.10;;
55260;SDS011;41123;51.416;6.758;2022-07-10T03:01:11;4.70;;;1.20;;
55260;SDS011;41123;51.416;6.758;2022-07-10T03:04:02;8.18;;;1.10;;
55260;SDS011;41123;51.416;6.758;2022-07-10T03:06:53;5.47;;;1.20;;
55260;SDS011;41123;51.416;6.758;2022-07-10T03:09:44;4.03;;;1.30;;
55260;SDS011;41123;51.416;6.758;2022-07-10T03:12:35;7.65;;;1.50;;
55260;SDS011;41123;51.416;6.758;2022-07-10T03:15:26;5.13;;;1.40;;
55260;SDS011;41123;51.416;6.758;2022-07-10T03:18:17;6.78;;;1.50;;
55260;SDS011;41123;51.416;6.758;2022-07-10T03:21:08;7.18;;;1.63;;
55260;SDS011;41123;51.416;6.758;2022-07-10T03:23:59;7.50;;;1.60;;
55260;SDS011;41123;51.416;6.758;2022-07-10T03:26:50;6.10;;;1.37;;
55260;SDS011;41123;51.416;6.758;2022-07-10T03:29:41;7.47;;;1.58;;
55260;SDS011;41123;51.416;6.758;2022-07-10T03:32:32;4.90;;;1.60;;
55260;SDS011;41123;51.416;6.758;2022-07-10T03:35:23;6.70;;;1.40;;
55260;SDS011;41123;51.416;6.758;2022-07-10T03:38:14;4.38;;;1.20;;
55260;SDS011;41123;51.416;6.758;2022-07-10T03:41:05;6.50;;;1.38;;
55260;SDS011;41123;51.416;6.758;2022-07-10T03:43:56;7.32;;;1.63;;
55260;SDS011;41123;51.416;6.758;2022-07-10T03:46:47;4.53;;;1.50;;
55260;SDS011;41123;51.416;6.758;2022-07-10T03:49:38;6.80;;;1.50;;
55260;SDS011;41123;51.416;6.758;2022-07-10T03:52:29;4.22;;;1.33;;
55260;SDS011;41123;51.416;6.758;2022-07-10T03:55:20;9.07;;;1.52;;
55260;SDS011;41123;51.416;6.758;2022-07-10T03:58:11;6.47;;;1.30;;
55260;SDS011;41123;51.416;6.758;2022-07-10T04:01:02;6.72;;;1.40;;
55260;SDS011;41123;51.416;6.758;2022-07-10T05:02:59;7.53;;;1.75;;
55260;SDS011;41123;51.416;6.758;2022-07-10T05:05:25;7.30;;;1.73;;
55260;SDS011;41123;51.416;6.758;2022-07-10T05:07:50;7.90;;;1.70;;
55260;SDS011;41123;51.416;6.758;2022-07-10T05:10:16;6.47;;;1.67;;
55260;SDS011;41123;51.416;6.758;2022-07-10T05:12:41;5.00;;;1.70;;
55260;SDS011;41123;51.416;6.758;2022-07-10T05:15:07;3.97;;;1.50;;
55260;SDS011;41123;51.416;6.758;2022-07-10T05:17:33;6.82;;;1.77;;
55260;SDS011;41123;51.416;6.758;2022-07-10T05:19:59;4.45;;;1.70;;
55260;SDS011;41123;51.416;6.758;2022-07-10T05:22:24;5.97;;;1.80;;
55260;SDS011;41123;51.416;6.758;2022-07-10T05:24:51;5.32;;;1.70;;
55260;SDS011;41123;51.416;6.758;2022-07-10T05:27:16;6.87;;;2.10;;
55260;SDS011;41123;51.416;6.758;2022-07-10T05:29:44;6.63;;;1.90;;
55260;SDS011;41123;51.416;6.758;2022-07-10T05:32:11;8.13;;;2.00;;
55260;SDS011;41123;51.416;6.758;2022-07-10T05:34:36;6.10;;;1.70;;
55260;SDS011;41123;51.416;6.758;2022-07-10T05:37:02;3.78;;;1.73;;
55260;SDS011;41123;51.416;6.758;2022-07-10T05:39:28;7.37;;;1.90;;
55260;SDS011;41123;51.416;6.758;2022-07-10T05:41:53;7.65;;;1.98;;
55260;SDS011;41123;51.416;6.758;2022-07-10T05:44:20;5.25;;;2.00;;
55260;SDS011;41123;51.416;6.758;2022-07-10T05:46:46;7.20;;;2.07;;
55260;SDS011;41123;51.416;6.758;2022-07-10T05:49:12;6.33;;;1.60;;
55260;SDS011;41123;51.416;6.758;2022-07-10T05:51:37;6.60;;;2.10;;
55260;SDS011;41123;51.416;6.758;2022-07-10T05:54:03;7.83;;;1.60;;
55260;SDS011;41123;51.416;6.758;2022-07-10T05:56:29;7.15;;;1.98;;
55260;SDS011;41123;51.416;6.758;2022-07-10T05:58:55;6.80;;;1.90;;
55260;SDS011;41123;51.416;6.758;2022-07-10T06:01:21;5.73;;;1.70;;
55260;SDS011;41123;51.416;6.758;2022-07-10T06:03:47;8.73;;;1.80;;
55260;SDS011;41123;51.416;6.758;2022-07-10T06:06:13;6.50;;;1.60;;
55260;SDS011;41123;51.416;6.758;2022-07-10T06:08:42;6.22;;;1.67;;
55260;SDS011;41123;51.416;6.758;2022-07-10T06:11:08;4.38;;;1.33;;
55260;SDS011;41123;51.416;6.758;2022-07-10T06:13:33;7.55;;;1.80;;
55260;SDS011;41123;51.416;6.758;2022-07-10T06:15:59;5.30;;;1.70;;
55260;SDS011;41123;51.416;6.758;2022-07-10T06:18:25;7.32;;;1.88;;
55260;SDS011;41123;51.416;6.758;2022-07-10T06:20:50;6.87;;;1.63;;
55260;SDS011;41123;51.416;6.758;2022-07-10T06:23:16;8.20;;;1.75;;
55260;SDS011;41123;51.416;6.758;2022-07-10T06:25:41;5.10;;;1.67;;
55260;SDS011;41123;51.416;6.758;2022-07-10T06:28:07;12.00;;;3.38;;
55260;SDS011;41123;51.416;6.758;2022-07-10T06:30:32;9.20;;;2.80;;
55260;SDS011;41123;51.416;6.758;2022-07-10T06:32:58;10.75;;;3.22;;
55260;SDS011;41123;51.416;6.758;2022-07-10T06:35:24;6.67;;;2.37;;
55260;SDS011;41123;51.416;6.758;2022-07-10T06:37:49;8.13;;;2.25;;
55260;SDS011;41123;51.416;6.758;2022-07-10T06:40:16;7.13;;;1.77;;
55260;SDS011;41123;51.416;6.758;2022-07-10T06:42:45;8.65;;;2.10;;
55260;SDS011;41123;51.416;6.758;2022-07-10T06:45:10;6.50;;;2.63;;
55260;SDS011;41123;51.416;6.758;2022-07-10T06:47:36;8.73;;;2.77;;
55260;SDS011;41123;51.416;6.758;2022-07-10T06:50:20;5.90;;;2.17;;
55260;SDS011;41123;51.416;6.758;2022-07-10T06:52:47;6.50;;;1.43;;
55260;SDS011;41123;51.416;6.758;2022-07-10T06:55:13;6.53;;;1.60;;
55260;SDS011;41123;51.416;6.758;2022-07-10T06:57:39;12.23;;;3.95;;
55260;SDS011;41123;51.416;6.758;2022-07-10T07:00:05;9.73;;;3.40;;
55260;SDS011;41123;51.416;6.758;2022-07-10T07:02:31;10.77;;;3.22;;
55260;SDS011;41123;51.416;6.758;2022-07-10T07:04:57;12.45;;;3.88;;
55260;SDS011;41123;51.416;6.758;2022-07-10T07:07:23;6.93;;;2.50;;
55260;SDS011;41123;51.416;6.758;2022-07-10T07:09:48;9.20;;;3.08;;
55260;SDS011;41123;51.416;6.758;2022-07-10T07:12:15;10.50;;;2.88;;
55260;SDS011;41123;51.416;6.758;2022-07-10T07:14:42;8.07;;;2.20;;
55260;SDS011;41123;51.416;6.758;2022-07-10T07:17:08;9.67;;;1.90;;
55260;SDS011;41123;51.416;6.758;2022-07-10T07:19:36;6.75;;;1.52;;
55260;SDS011;41123;51.416;6.758;2022-07-10T07:22:21;8.25;;;1.88;;
55260;SDS011;41123;51.416;6.758;2022-07-10T07:25:07;6.88;;;1.30;;
55260;SDS011;41123;51.416;6.758;2022-07-10T07:27:34;6.38;;;1.70;;
55260;SDS011;41123;51.416;6.758;2022-07-10T07:30:05;6.40;;;2.20;;
55260;SDS011;41123;51.416;6.758;2022-07-10T07:32:35;5.97;;;1.48;;
55260;SDS011;41123;51.416;6.758;2022-07-10T07:35:01;7.00;;;1.65;;
55260;SDS011;41123;51.416;6.758;2022-07-10T07:37:36;7.55;;;1.60;;
55260;SDS011;41123;51.416;6.758;2022-07-10T07:40:05;9.80;;;2.28;;
55260;SDS011;41123;51.416;6.758;2022-07-10T07:42:32;10.02;;;3.10;;
55260;SDS011;41123;51.416;6.758;2022-07-10T07:44:58;7.10;;;2.57;;
55260;SDS011;41123;51.416;6.758;2022-07-10T07:47:24;7.97;;;2.72;;
55260;SDS011;41123;51.416;6.758;2022-07-10T07:49:50;9.20;;;1.70;;
55260;SDS011;41123;51.416;6.758;2022-07-10T07:52:15;8.27;;;1.80;;
55260;SDS011;41123;51.416;6.758;2022-07-10T07:54:41;7.30;;;1.98;;
55260;SDS011;41123;51.416;6.758;2022-07-10T07:57:06;9.10;;;2.90;;
55260;SDS011;41123;51.416;6.758;2022-07-10T07:59:32;9.38;;;1.98;;
55260;SDS011;41123;51.416;6.758;2022-07-10T08:01:58;7.73;;;1.73;;
55260;SDS011;41123;51.416;6.758;2022-07-10T08:04:23;6.65;;;1.73;;
55260;SDS011;41123;51.416;6.758;2022-07-10T08:06:49;8.63;;;1.70;;
55260;SDS011;41123;51.416;6.758;2022-07-10T08:09:17;8.10;;;1.45;;
55260;SDS011;41123;51.416;6.758;2022-07-10T08:11:43;5.95;;;1.65;;
55260;SDS011;41123;51.416;6.758;2022-07-10T08:14:09;9.00;;;1.90;;
55260;SDS011;41123;51.416;6.758;2022-07-10T08:16:34;4.32;;;1.70;;
55260;SDS011;41123;51.416;6.758;2022-07-10T08:19:00;9.50;;;1.83;;
55260;SDS011;41123;51.416;6.758;2022-07-10T08:21:26;7.23;;;1.90;;
55260;SDS011;41123;51.416;6.758;2022-07-10T08:23:51;5.77;;;2.00;;
55260;SDS011;41123;51.416;6.758;2022-07-10T08:26:18;5.22;;;1.92;;
55260;SDS011;41123;51.416;6.758;2022-07-10T08:28:44;5.90;;;2.15;;
55260;SDS011;41123;51.416;6.758;2022-07-10T08:31:10;10.83;;;2.60;;
55260;SDS011;41123;51.416;6.758;2022-07-10T08:33:36;6.07;;;2.10;;
55260;SDS011;41123;51.416;6.758;2022-07-10T08:36:02;6.43;;;2.30;;
55260;SDS011;41123;51.416;6.758;2022-07-10T08:38:29;6.70;;;2.00;;
55260;SDS011;41123;51.416;6.758;2022-07-10T08:40:54;9.88;;;2.35;;
55260;SDS011;41123;51.416;6.758;2022-07-10T08:43:22;6.30;;;2.20;;
55260;SDS011;41123;51.416;6.758;2022-07-10T08:45:50;6.65;;;2.15;;
55260;SDS011;41123;51.416;6.758;2022-07-10T08:48:18;8.52;;;2.00;;
55260;SDS011;41123;51.416;6.758;2022-07-10T08:50:47;7.77;;;2.50;;
55260;SDS011;41123;51.416;6.758;2022-07-10T08:53:17;6.85;;;1.95;;
55260;SDS011;41123;51.416;6.758;2022-07-10T08:55:48;9.95;;;2.50;;
55260;SDS011;41123;51.416;6.758;2022-07-10T08:58:14;6.17;;;1.90;;
55260;SDS011;41123;51.416;6.758;2022-07-10T09:00:41;7.03;;;2.20;;
55260;SDS011;41123;51.416;6.758;2022-07-10T09:03:07;7.55;;;2.20;;
55260;SDS011;41123;51.416;6.758;2022-07-10T09:05:33;6.43;;;2.05;;
55260;SDS011;41123;51.416;6.758;2022-07-10T09:08:00;6.95;;;2.08;;
55260;SDS011;41123;51.416;6.758;2022-07-10T09:10:26;9.23;;;2.40;;
55260;SDS011;41123;51.416;6.758;2022-07-10T09:12:53;6.38;;;2.25;;
55260;SDS011;41123;51.416;6.758;2022-07-10T09:15:22;6.43;;;2.20;;
55260;SDS011;41123;51.416;6.758;2022-07-10T09:17:52;8.80;;;2.57;;
55260;SDS011;41123;51.416;6.758;2022-07-10T09:22:55;8.88;;;3.13;;
55260;SDS011;41123;51.416;6.758;2022-07-10T09:25:22;7.93;;;2.80;;
55260;SDS011;41123;51.416;6.758;2022-07-10T09:27:57;5.40;;;2.50;;
55260;SDS011;41123;51.416;6.758;2022-07-10T09:30:34;6.72;;;2.20;;
55260;SDS011;41123;51.416;6.758;2022-07-10T09:33:18;7.95;;;2.20;;
55260;SDS011;41123;51.416;6.758;2022-07-10T09:36:04;8.30;;;2.50;;
55260;SDS011;41123;51.416;6.758;2022-07-10T09:41:12;6.00;;;2.10;;
55260;SDS011;41123;51.416;6.758;2022-07-10T09:46:15;7.93;;;2.63;;
55260;SDS011;41123;51.416;6.758;2022-07-10T09:48:41;8.52;;;2.40;;
55260;SDS011;41123;51.416;6.758;2022-07-10T09:51:08;4.82;;;2.20;;
55260;SDS011;41123;51.416;6.758;2022-07-10T09:53:38;5.15;;;2.00;;
55260;SDS011;41123;51.416;6.758;2022-07-10T09:56:09;8.85;;;2.67;;
55260;SDS011;41123;51.416;6.758;2022-07-10T09:58:38;4.85;;;1.95;;
55260;SDS011;41123;51.416;6.758;2022-07-10T10:01:04;4.20;;;2.00;;
55260;SDS011;41123;51.416;6.758;2022-07-10T10:03:35;6.43;;;2.33;;
55260;SDS011;41123;51.416;6.758;2022-07-10T10:06:11;4.30;;;1.80;;
55260;SDS011;41123;51.416;6.758;2022-07-10T10:11:44;3.90;;;1.67;;
55260;SDS011;41123;51.416;6.758;2022-07-10T10:14:11;6.47;;;2.75;;
55260;SDS011;41123;51.416;6.758;2022-07-10T10:16:39;4.57;;;2.30;;
55260;SDS011;41123;51.416;6.758;2022-07-10T10:19:08;3.20;;;1.50;;
55260;SDS011;41123;51.416;6.758;2022-07-10T10:21:54;4.20;;;1.50;;
55260;SDS011;41123;51.416;6.758;2022-07-10T10:24:22;2.40;;;1.37;;
55260;SDS011;41123;51.416;6.758;2022-07-10T10:26:50;4.10;;;1.83;;
55260;SDS011;41123;51.416;6.758;2022-07-10T10:29:16;2.53;;;1.40;;
55260;SDS011;41123;51.416;6.758;2022-07-10T10:31:42;3.10;;;1.35;;
55260;SDS011;41123;51.416;6.758;2022-07-10T10:34:08;2.92;;;1.23;;
55260;SDS011;41123;51.416;6.758;2022-07-10T10:41:42;2.17;;;1.33;;
55260;SDS011;41123;51.416;6.758;2022-07-10T10:49:15;4.22;;;1.60;;
55260;SDS011;41123;51.416;6.758;2022-07-10T10:57:20;2.50;;;1.30;;
55260;SDS011;41123;51.416;6.758;2022-07-10T10:59:51;1.97;;;1.30;;
55260;SDS011;41123;51.416;6.758;2022-07-10T11:02:22;4.80;;;1.40;;
55260;SDS011;41123;51.416;6.758;2022-07-10T11:04:49;4.60;;;1.50;;
55260;SDS011;41123;51.416;6.758;2022-07-10T11:13:01;2.15;;;1.40;;
55260;SDS011;41123;51.416;6.758;2022-07-10T11:15:31;3.58;;;1.40;;
55260;SDS011;41123;51.416;6.758;2022-07-10T11:20:31;6.28;;;2.25;;
55260;SDS011;41123;51.416;6.758;2022-07-10T11:25:41;14.10;;;5.70;;
55260;SDS011;41123;51.416;6.758;2022-07-10T11:28:15;8.73;;;3.28;;
55260;SDS011;41123;51.416;6.758;2022-07-10T11:30:53;13.57;;;4.75;;
55260;SDS011;41123;51.416;6.758;2022-07-10T11:33:20;4.68;;;1.85;;
55260;SDS011;41123;51.416;6.758;2022-07-10T11:35:47;7.95;;;3.45;;
55260;SDS011;41123;51.416;6.758;2022-07-10T11:38:24;5.00;;;1.95;;
55260;SDS011;41123;51.416;6.758;2022-07-10T11:40:51;4.28;;;1.70;;
55260;SDS011;41123;51.416;6.758;2022-07-10T11:43:20;5.68;;;2.10;;
55260;SDS011;41123;51.416;6.758;2022-07-10T11:45:49;4.68;;;1.73;;
55260;SDS011;41123;51.416;6.758;2022-07-10T11:48:18;4.57;;;1.50;;
55260;SDS011;41123;51.416;6.758;2022-07-10T11:50:45;5.20;;;1.42;;
55260;SDS011;41123;51.416;6.758;2022-07-10T11:53:11;5.97;;;1.85;;
55260;SDS011;41123;51.416;6.758;2022-07-10T11:55:37;5.28;;;1.70;;
55260;SDS011;41123;51.416;6.758;2022-07-10T12:00:44;6.47;;;1.65;;
55260;SDS011;41123;51.416;6.758;2022-07-10T12:03:24;3.85;;;1.48;;
55260;SDS011;41123;51.416;6.758;2022-07-10T12:05:49;6.55;;;1.95;;
55260;SDS011;41123;51.416;6.758;2022-07-10T12:08:16;6.22;;;1.60;;
55260;SDS011;41123;51.416;6.758;2022-07-10T12:10:42;5.15;;;1.50;;
55260;SDS011;41123;51.416;6.758;2022-07-10T12:13:09;4.75;;;1.83;;
55260;SDS011;41123;51.416;6.758;2022-07-10T12:15:37;4.88;;;1.60;;
55260;SDS011;41123;51.416;6.758;2022-07-10T12:18:05;5.75;;;2.08;;
55260;SDS011;41123;51.416;6.758;2022-07-10T12:20:33;5.67;;;1.80;;
55260;SDS011;41123;51.416;6.758;2022-07-10T12:23:00;6.85;;;1.88;;
55260;SDS011;41123;51.416;6.758;2022-07-10T12:25:26;6.40;;;2.05;;
55260;SDS011;41123;51.416;6.758;2022-07-10T12:27:55;5.60;;;2.13;;
55260;SDS011;41123;51.416;6.758;2022-07-10T12:30:23;5.95;;;1.90;;
55260;SDS011;41123;51.416;6.758;2022-07-10T12:33:05;7.20;;;2.28;;
55260;SDS011;41123;51.416;6.758;2022-07-10T12:35:50;3.38;;;1.90;;
55260;SDS011;41123;51.416;6.758;2022-07-10T12:38:24;9.25;;;2.42;;
55260;SDS011;41123;51.416;6.758;2022-07-10T12:40:51;5.72;;;2.20;;
55260;SDS011;41123;51.416;6.758;2022-07-10T12:43:33;4.77;;;2.30;;
55260;SDS011;41123;51.416;6.758;2022-07-10T12:51:31;7.72;;;2.28;;
55260;SDS011;41123;51.416;6.758;2022-07-10T12:54:09;8.63;;;2.13;;
55260;SDS011;41123;51.416;6.758;2022-07-10T12:56:57;5.55;;;2.10;;
55260;SDS011;41123;51.416;6.758;2022-07-10T12:59:24;6.10;;;1.80;;
55260;SDS011;41123;51.416;6.758;2022-07-10T13:01:49;4.38;;;1.90;;
55260;SDS011;41123;51.416;6.758;2022-07-10T13:04:22;5.50;;;1.83;;
55260;SDS011;41123;51.416;6.758;2022-07-10T13:06:49;4.75;;;1.70;;
55260;SDS011;41123;51.416;6.758;2022-07-10T13:09:18;3.40;;;1.60;;
55260;SDS011;41123;51.416;6.758;2022-07-10T13:11:45;3.60;;;1.70;;
55260;SDS011;41123;51.416;6.758;2022-07-10T13:14:11;4.00;;;1.52;;
55260;SDS011;41123;51.416;6.758;2022-07-10T13:16:37;3.50;;;1.57;;
55260;SDS011;41123;51.416;6.758;2022-07-10T13:19:02;5.88;;;1.50;;
55260;SDS011;41123;51.416;6.758;2022-07-10T13:21:28;3.93;;;1.50;;
55260;SDS011;41123;51.416;6.758;2022-07-10T13:23:53;9.73;;;3.40;;
55260;SDS011;41123;51.416;6.758;2022-07-10T13:26:20;8.82;;;3.08;;
55260;SDS011;41123;51.416;6.758;2022-07-10T13:28:45;10.80;;;4.37;;
55260;SDS011;41123;51.416;6.758;2022-07-10T13:31:11;7.73;;;2.67;;
55260;SDS011;41123;51.416;6.758;2022-07-10T13:33:37;7.50;;;2.33;;
55260;SDS011;41123;51.416;6.758;2022-07-10T13:36:03;7.20;;;2.22;;
55260;SDS011;41123;51.416;6.758;2022-07-10T13:38:29;7.93;;;2.75;;
55260;SDS011;41123;51.416;6.758;2022-07-10T13:40:55;4.70;;;1.67;;
55260;SDS011;41123;51.416;6.758;2022-07-10T13:43:20;4.82;;;1.58;;
55260;SDS011;41123;51.416;6.758;2022-07-10T13:45:46;4.32;;;1.50;;
55260;SDS011;41123;51.416;6.758;2022-07-10T13:48:12;3.10;;;1.30;;
55260;SDS011;41123;51.416;6.758;2022-07-10T13:50:39;4.23;;;1.40;;
55260;SDS011;41123;51.416;6.758;2022-07-10T13:53:06;3.40;;;1.20;;
55260;SDS011;41123;51.416;6.758;2022-07-10T13:55:32;3.88;;;1.30;;
55260;SDS011;41123;51.416;6.758;2022-07-10T13:57:59;4.05;;;1.23;;
55260;SDS011;41123;51.416;6.758;2022-07-10T14:00:25;2.87;;;1.07;;
55260;SDS011;41123;51.416;6.758;2022-07-10T14:02:50;3.90;;;1.10;;
55260;SDS011;41123;51.416;6.758;2022-07-10T14:05:16;4.40;;;1.50;;
55260;SDS011;41123;51.416;6.758;2022-07-10T14:07:42;4.35;;;1.23;;
55260;SDS011;41123;51.416;6.758;2022-07-10T14:10:07;3.53;;;1.20;;
55260;SDS011;41123;51.416;6.758;2022-07-10T14:12:33;3.33;;;1.80;;
55260;SDS011;41123;51.416;6.758;2022-07-10T14:14:59;3.22;;;1.10;;
55260;SDS011;41123;51.416;6.758;2022-07-10T14:17:25;5.43;;;1.60;;
55260;SDS011;41123;51.416;6.758;2022-07-10T14:19:53;2.85;;;1.20;;
55260;SDS011;41123;51.416;6.758;2022-07-10T14:22:18;2.47;;;1.00;;
55260;SDS011;41123;51.416;6.758;2022-07-10T14:24:44;3.30;;;1.10;;
55260;SDS011;41123;51.416;6.758;2022-07-10T14:27:09;3.08;;;1.00;;
55260;SDS011;41123;51.416;6.758;2022-07-10T14:29:35;3.73;;;1.17;;
55260;SDS011;41123;51.416;6.758;2022-07-10T14:32:01;3.28;;;1.10;;
55260;SDS011;41123;51.416;6.758;2022-07-10T14:34:27;2.83;;;1.02;;
55260;SDS011;41123;51.416;6.758;2022-07-10T14:36:54;3.40;;;1.10;;
55260;SDS011;41123;51.416;6.758;2022-07-10T14:39:19;4.22;;;1.10;;
55260;SDS011;41123;51.416;6.758;2022-07-10T14:41:45;2.47;;;1.10;;
55260;SDS011;41123;51.416;6.758;2022-07-10T14:44:11;4.53;;;1.60;;
55260;SDS011;41123;51.416;6.758;2022-07-10T14:46:37;6.25;;;1.50;;
55260;SDS011;41123;51.416;6.758;2022-07-10T14:49:02;5.73;;;2.13;;
55260;SDS011;41123;51.416;6.758;2022-07-10T14:51:28;4.18;;;1.73;;
55260;SDS011;41123;51.416;6.758;2022-07-10T14:53:54;3.45;;;1.60;;
55260;SDS011;41123;51.416;6.758;2022-07-10T14:56:21;2.75;;;1.20;;
55260;SDS011;41123;51.416;6.758;2022-07-10T14:58:48;5.18;;;1.40;;
55260;SDS011;41123;51.416;6.758;2022-07-10T15:01:14;3.45;;;1.10;;
55260;SDS011;41123;51.416;6.758;2022-07-10T15:03:40;5.28;;;1.20;;
55260;SDS011;41123;51.416;6.758;2022-07-10T15:06:06;1.92;;;0.95;;
55260;SDS011;41123;51.416;6.758;2022-07-10T15:08:32;2.80;;;1.10;;
55260;SDS011;41123;51.416;6.758;2022-07-10T15:10:58;3.00;;;1.10;;
55260;SDS011;41123;51.416;6.758;2022-07-10T15:13:25;2.85;;;1.10;;
55260;SDS011;41123;51.416;6.758;2022-07-10T15:15:53;5.88;;;1.75;;
55260;SDS011;41123;51.416;6.758;2022-07-10T15:18:19;3.75;;;1.48;;
55260;SDS011;41123;51.416;6.758;2022-07-10T15:20:46;3.58;;;1.27;;
55260;SDS011;41123;51.416;6.758;2022-07-10T15:23:12;4.68;;;1.63;;
55260;SDS011;41123;51.416;6.758;2022-07-10T15:25:38;4.47;;;1.50;;
55260;SDS011;41123;51.416;6.758;2022-07-10T15:28:05;4.60;;;1.42;;
55260;SDS011;41123;51.416;6.758;2022-07-10T15:30:32;2.60;;;1.38;;
55260;SDS011;41123;51.416;6.758;2022-07-10T15:33:02;3.88;;;1.20;;
55260;SDS011;41123;51.416;6.758;2022-07-10T15:35:29;3.30;;;1.30;;
55260;SDS011;41123;51.416;6.758;2022-07-10T15:37:56;5.63;;;1.30;;
55260;SDS011;41123;51.416;6.758;2022-07-10T15:40:24;4.03;;;1.10;;
55260;SDS011;41123;51.416;6.758;2022-07-10T15:42:54;2.70;;;1.00;;
55260;SDS011;41123;51.416;6.758;2022-07-10T15:45:21;3.42;;;1.27;;
55260;SDS011;41123;51.416;6.758;2022-07-10T15:47:47;4.63;;;1.20;;
55260;SDS011;41123;51.416;6.758;2022-07-10T15:50:13;3.27;;;1.17;;
55260;SDS011;41123;51.416;6.758;2022-07-10T15:52:38;2.25;;;1.05;;
55260;SDS011;41123;51.416;6.758;2022-07-10T15:55:04;5.07;;;1.30;;
55260;SDS011;41123;51.416;6.758;2022-07-10T15:57:30;3.85;;;1.30;;
55260;SDS011;41123;51.416;6.758;2022-07-10T15:59:56;3.58;;;1.20;;
55260;SDS011;41123;51.416;6.758;2022-07-10T16:02:21;3.70;;;1.10;;
55260;SDS011;41123;51.416;6.758;2022-07-10T16:04:47;3.07;;;1.30;;
55260;SDS011;41123;51.416;6.758;2022-07-10T16:07:12;2.88;;;1.10;;
55260;SDS011;41123;51.416;6.758;2022-07-10T16:09:38;3.43;;;1.27;;
55260;SDS011;41123;51.416;6.758;2022-07-10T16:12:04;3.08;;;1.33;;
55260;SDS011;41123;51.416;6.758;2022-07-10T16:14:30;3.45;;;1.50;;
55260;SDS011;41123;51.416;6.758;2022-07-10T16:16:56;3.60;;;1.40;;
55260;SDS011;41123;51.416;6.758;2022-07-10T16:19:21;7.23;;;3.20;;
55260;SDS011;41123;51.416;6.758;2022-07-10T16:21:47;4.60;;;2.20;;
55260;SDS011;41123;51.416;6.758;2022-07-10T16:24:13;4.68;;;1.20;;
55260;SDS011;41123;51.416;6.758;2022-07-10T16:26:56;3.55;;;1.30;;
55260;SDS011;41123;51.416;6.758;2022-07-10T16:29:21;3.47;;;1.20;;
55260;SDS011;41123;51.416;6.758;2022-07-10T16:31:50;4.63;;;1.10;;
55260;SDS011;41123;51.416;6.758;2022-07-10T16:34:17;3.58;;;1.60;;
55260;SDS011;41123;51.416;6.758;2022-07-10T16:36:42;4.82;;;1.67;;
55260;SDS011;41123;51.416;6.758;2022-07-10T16:39:08;3.20;;;1.30;;
55260;SDS011;41123;51.416;6.758;2022-07-10T16:41:33;2.55;;;1.13;;
55260;SDS011;41123;51.416;6.758;2022-07-10T16:43:59;2.40;;;1.07;;
55260;SDS011;41123;51.416;6.758;2022-07-10T16:46:25;5.32;;;1.40;;
55260;SDS011;41123;51.416;6.758;2022-07-10T16:48:50;4.03;;;1.40;;
55260;SDS011;41123;51.416;6.758;2022-07-10T16:51:16;4.13;;;1.50;;
55260;SDS011;41123;51.416;6.758;2022-07-10T16:53:43;4.53;;;1.38;;